createdAt,value
2022-09-15T00:00:11.469Z,98591.84
2022-09-15T00:00:43.602Z,98595.19
2022-09-15T00:01:16.276Z,98591.16
2022-09-15T00:01:48.222Z,98598.03
2022-09-15T00:02:20.228Z,98594.78
2022-09-15T00:02:52.337Z,98593.69
2022-09-15T00:03:24.832Z,98598.69
2022-09-15T00:03:57.299Z,98590.75
2022-09-15T00:04:29.137Z,98587.00
2022-09-15T00:05:01.094Z,98591.53
2022-09-15T00:05:32.994Z,98589.66
2022-09-15T00:06:05.888Z,98589.19
2022-09-15T00:06:37.815Z,98590.75
2022-09-15T00:07:10.113Z,98588.38
2022-09-15T00:07:42.357Z,98587.00
2022-09-15T00:08:14.674Z,98580.81
2022-09-15T00:08:46.652Z,98578.41
2022-09-15T00:09:18.732Z,98572.50
2022-09-15T00:09:50.560Z,98577.78
2022-09-15T00:10:22.487Z,98573.38
2022-09-15T00:11:06.014Z,98581.53
2022-09-15T00:11:38.522Z,98573.47
2022-09-15T00:12:10.435Z,98576.31
2022-09-15T00:12:42.296Z,98576.34
2022-09-15T00:13:15.002Z,98578.53
2022-09-15T00:13:47.081Z,98572.38
2022-09-15T00:14:19.254Z,98572.88
2022-09-15T00:14:51.157Z,98574.53
2022-09-15T00:15:23.701Z,98573.47
2022-09-15T00:15:55.885Z,98575.31
2022-09-15T00:16:30.963Z,98563.78
2022-09-15T00:17:03.482Z,98576.25
2022-09-15T00:17:35.404Z,98571.22
2022-09-15T00:18:07.820Z,98572.00
2022-09-15T00:18:40.648Z,98566.72
2022-09-15T00:19:12.552Z,98575.63
2022-09-15T00:19:44.425Z,98574.06
2022-09-15T00:20:20.972Z,98571.53
2022-09-15T00:20:52.802Z,98567.19
2022-09-15T00:21:28.939Z,98567.81
2022-09-15T00:22:00.913Z,98565.81
2022-09-15T00:22:33.462Z,98569.19
2022-09-15T00:23:05.305Z,98572.91
2022-09-15T00:23:38.241Z,98575.06
2022-09-15T00:24:10.555Z,98572.91
2022-09-15T00:24:42.442Z,98561.53
2022-09-15T00:25:15.622Z,98562.72
2022-09-15T00:25:51.101Z,98552.56
2022-09-15T00:26:25.591Z,98546.66
2022-09-15T00:26:57.478Z,98548.03
2022-09-15T00:27:29.413Z,98542.16
2022-09-15T00:28:01.666Z,98538.53
2022-09-15T00:28:33.610Z,98530.87
2022-09-15T00:29:05.701Z,98530.59
2022-09-15T00:29:37.841Z,98524.22
2022-09-15T00:30:10.084Z,98522.06
2022-09-15T00:30:48.288Z,98519.41
2022-09-15T00:31:22.755Z,98513.13
2022-09-15T00:31:54.743Z,98513.22
2022-09-15T00:32:27.161Z,98497.66
2022-09-15T00:32:59.015Z,98498.44
2022-09-15T00:33:31.173Z,98500.59
2022-09-15T00:34:03.182Z,98503.03
2022-09-15T00:34:35.339Z,98507.84
2022-09-15T00:35:07.567Z,98499.87
2022-09-15T00:35:41.313Z,98508.03
2022-09-15T00:36:14.526Z,98502.91
2022-09-15T00:36:46.425Z,98507.16
2022-09-15T00:37:18.308Z,98514.59
2022-09-15T00:37:50.162Z,98508.22
2022-09-15T00:38:22.047Z,98510.28
2022-09-15T00:38:55.059Z,98504.88
2022-09-15T00:39:26.912Z,98506.03
2022-09-15T00:39:58.828Z,98499.94
2022-09-15T00:40:30.853Z,98505.97
2022-09-15T00:41:03.909Z,98520.88
2022-09-15T00:41:35.823Z,98517.78
2022-09-15T00:42:07.931Z,98522.87
2022-09-15T00:42:41.766Z,98526.91
2022-09-15T00:43:14.580Z,98531.53
2022-09-15T00:43:56.242Z,98535.06
2022-09-15T00:44:37.177Z,98544.28
2022-09-15T00:45:16.055Z,98542.12
2022-09-15T00:45:48.622Z,98552.91
2022-09-15T00:46:27.361Z,98561.16
2022-09-15T00:47:18.344Z,98555.66
2022-09-15T00:47:52.097Z,98571.59
2022-09-15T00:48:23.970Z,98578.75
2022-09-15T00:49:22.189Z,98582.78
2022-09-15T00:50:01.501Z,98591.22
2022-09-15T00:50:34.439Z,98604.53
2022-09-15T00:51:08.797Z,98605.53
2022-09-15T00:51:48.057Z,98611.78
2022-09-15T00:52:47.856Z,98607.28
2022-09-15T00:53:20.836Z,98606.91
2022-09-15T00:53:53.491Z,98609.84
2022-09-15T00:54:54.784Z,98609.84
2022-09-15T00:55:39.481Z,98607.69
2022-09-15T00:56:13.472Z,98606.09
2022-09-15T00:56:48.602Z,98609.84
2022-09-15T00:57:37.117Z,98613.75
2022-09-15T00:58:13.171Z,98621.19
2022-09-15T00:58:52.072Z,98621.41
2022-09-15T00:59:28.546Z,98628.25
2022-09-15T01:00:03.754Z,98627.97
2022-09-15T01:00:36.816Z,98634.34
2022-09-15T01:01:09.166Z,98635.63
2022-09-15T01:01:43.222Z,98637.97
2022-09-15T01:02:27.984Z,98640.03
2022-09-15T01:03:00.485Z,98645.94
2022-09-15T01:03:33.576Z,98644.94
2022-09-15T01:04:05.543Z,98634.44
2022-09-15T01:04:37.876Z,98638.97
2022-09-15T01:05:13.886Z,98640.25
2022-09-15T01:05:54.416Z,98644.16
2022-09-15T01:06:49.285Z,98637.41
2022-09-15T01:07:37.155Z,98640.06
2022-09-15T01:08:19.128Z,98636.19
2022-09-15T01:09:11.179Z,98634.75
2022-09-15T01:09:48.951Z,98640.84
2022-09-15T01:10:36.385Z,98626.31
2022-09-15T01:11:08.746Z,98633.38
2022-09-15T01:11:41.922Z,98626.22
2022-09-15T01:12:14.116Z,98628.25
2022-09-15T01:12:46.480Z,98624.25
2022-09-15T01:13:18.415Z,98628.44
2022-09-15T01:13:50.294Z,98624.91
2022-09-15T01:14:22.238Z,98626.50
2022-09-15T01:14:54.966Z,98622.75
2022-09-15T01:15:49.947Z,98628.06
2022-09-15T01:16:40.343Z,98625.41
2022-09-15T01:17:40.980Z,98635.94
2022-09-15T01:18:20.968Z,98639.03
2022-09-15T01:19:32.360Z,98645.63
2022-09-15T01:20:31.748Z,98647.69
2022-09-15T01:21:16.130Z,98638.16
2022-09-15T01:21:53.698Z,98645.03
2022-09-15T01:23:06.116Z,98637.66
2022-09-15T01:23:58.614Z,98644.34
2022-09-15T01:25:01.725Z,98641.91
2022-09-15T01:26:01.200Z,98636.28
2022-09-15T01:27:38.144Z,98636.50
2022-09-15T01:28:49.382Z,98634.13
2022-09-15T01:29:27.037Z,98640.91
2022-09-15T01:30:17.080Z,98644.75
2022-09-15T01:31:08.377Z,98645.53
2022-09-15T01:32:16.330Z,98636.50
2022-09-15T01:33:06.611Z,98642.28
2022-09-15T01:34:09.438Z,98645.06
2022-09-15T01:34:48.613Z,98642.22
2022-09-15T01:35:35.302Z,98638.47
2022-09-15T01:36:28.225Z,98638.19
2022-09-15T01:37:10.048Z,98632.56
2022-09-15T01:37:50.898Z,98636.72
2022-09-15T01:38:30.833Z,98633.75
2022-09-15T01:39:19.179Z,98632.97
2022-09-15T01:39:53.248Z,98626.72
2022-09-15T01:40:30.696Z,98623.75
2022-09-15T01:41:16.192Z,98624.53
2022-09-15T01:41:53.393Z,98622.97
2022-09-15T01:42:27.235Z,98616.13
2022-09-15T01:43:01.844Z,98624.53
2022-09-15T01:43:39.275Z,98625.34
2022-09-15T01:44:22.181Z,98616.28
2022-09-15T01:45:07.448Z,98609.22
2022-09-15T01:45:42.516Z,98611.00
2022-09-15T01:46:17.325Z,98613.25
2022-09-15T01:46:56.449Z,98615.31
2022-09-15T01:47:29.988Z,98615.31
2022-09-15T01:48:05.541Z,98614.53
2022-09-15T01:48:38.569Z,98611.56
2022-09-15T01:49:15.688Z,98612.16
2022-09-15T01:49:56.589Z,98619.81
2022-09-15T01:50:37.204Z,98620.41
2022-09-15T01:51:09.550Z,98612.94
2022-09-15T01:51:44.022Z,98617.56
2022-09-15T01:52:18.065Z,98623.97
2022-09-15T01:52:55.056Z,98625.50
2022-09-15T01:53:28.750Z,98627.88
2022-09-15T01:54:03.917Z,98629.03
2022-09-15T01:54:40.421Z,98635.72
2022-09-15T01:55:21.462Z,98629.81
2022-09-15T01:56:13.390Z,98633.56
2022-09-15T01:56:45.300Z,98630.81
2022-09-15T01:57:21.408Z,98632.38
2022-09-15T01:57:53.380Z,98632.97
2022-09-15T01:58:25.333Z,98629.81
2022-09-15T01:58:58.017Z,98634.16
2022-09-15T01:59:29.949Z,98634.75
2022-09-15T02:00:02.376Z,98635.63
2022-09-15T02:00:44.151Z,98630.03
2022-09-15T02:01:29.835Z,98628.47
2022-09-15T02:02:12.513Z,98631.72
2022-09-15T02:02:55.116Z,98624.94
2022-09-15T02:03:55.428Z,98629.34
2022-09-15T02:04:52.953Z,98622.56
2022-09-15T02:05:32.375Z,98623.56
2022-09-15T02:06:11.089Z,98622.09
2022-09-15T02:06:54.854Z,98620.81
2022-09-15T02:07:39.160Z,98625.50
2022-09-15T02:08:28.544Z,98623.34
2022-09-15T02:09:04.288Z,98625.50
2022-09-15T02:09:44.460Z,98624.16
2022-09-15T02:10:19.535Z,98624.44
2022-09-15T02:11:08.479Z,98618.38
2022-09-15T02:12:00.981Z,98618.75
2022-09-15T02:12:47.874Z,98623.78
2022-09-15T02:13:48.677Z,98615.34
2022-09-15T02:14:49.323Z,98619.25
2022-09-15T02:15:42.256Z,98615.53
2022-09-15T02:16:20.161Z,98613.94
2022-09-15T02:16:54.596Z,98608.09
2022-09-15T02:17:29.492Z,98610.53
2022-09-15T02:18:06.114Z,98620.03
2022-09-15T02:19:02.839Z,98618.94
2022-09-15T02:19:41.701Z,98620.72
2022-09-15T02:20:34.348Z,98619.81
2022-09-15T02:21:18.901Z,98620.91
2022-09-15T02:21:57.271Z,98621.97
2022-09-15T02:22:32.742Z,98621.50
2022-09-15T02:23:13.290Z,98618.28
2022-09-15T02:23:51.352Z,98625.12
2022-09-15T02:24:51.751Z,98619.44
2022-09-15T02:25:32.765Z,98629.47
2022-09-15T02:26:17.570Z,98619.03
2022-09-15T02:26:51.953Z,98621.59
2022-09-15T02:27:27.498Z,98613.81
2022-09-15T02:28:08.546Z,98611.78
2022-09-15T02:28:43.178Z,98616.47
2022-09-15T02:29:18.638Z,98627.06
2022-09-15T02:29:54.874Z,98617.28
2022-09-15T02:30:29.566Z,98617.47
2022-09-15T02:31:05.200Z,98622.75
2022-09-15T02:31:39.833Z,98621.66
2022-09-15T02:32:15.346Z,98624.81
2022-09-15T02:33:08.471Z,98622.25
2022-09-15T02:33:45.110Z,98617.75
2022-09-15T02:34:21.942Z,98621.19
2022-09-15T02:34:57.146Z,98626.59
2022-09-15T02:35:31.439Z,98617.66
2022-09-15T02:36:04.146Z,98627.19
2022-09-15T02:36:36.314Z,98624.53
2022-09-15T02:37:10.322Z,98626.12
2022-09-15T02:37:42.499Z,98617.84
2022-09-15T02:38:15.173Z,98625.12
2022-09-15T02:38:53.455Z,98612.97
2022-09-15T02:39:32.968Z,98624.16
2022-09-15T02:40:06.887Z,98621.50
2022-09-15T02:40:44.444Z,98619.44
2022-09-15T02:41:17.245Z,98617.88
2022-09-15T02:41:49.356Z,98618.88
2022-09-15T02:42:26.864Z,98624.94
2022-09-15T02:43:01.826Z,98621.19
2022-09-15T02:43:34.201Z,98624.94
2022-09-15T02:44:09.450Z,98620.72
2022-09-15T02:44:42.249Z,98624.25
2022-09-15T02:45:14.600Z,98623.19
2022-09-15T02:45:46.780Z,98624.72
2022-09-15T02:46:21.304Z,98630.34
2022-09-15T02:46:53.348Z,98630.91
2022-09-15T02:47:25.676Z,98629.63
2022-09-15T02:47:58.367Z,98632.47
2022-09-15T02:48:30.210Z,98632.19
2022-09-15T02:49:02.666Z,98633.25
2022-09-15T02:49:34.860Z,98635.31
2022-09-15T02:50:07.237Z,98636.81
2022-09-15T02:50:39.527Z,98638.97
2022-09-15T02:51:11.574Z,98634.44
2022-09-15T02:51:43.415Z,98636.50
2022-09-15T02:52:15.861Z,98632.75
2022-09-15T02:52:47.747Z,98635.31
2022-09-15T02:53:19.586Z,98631.59
2022-09-15T02:53:51.497Z,98630.16
2022-09-15T02:54:23.373Z,98632.97
2022-09-15T02:54:56.023Z,98636.91
2022-09-15T02:55:29.028Z,98631.00
2022-09-15T02:56:01.060Z,98631.59
2022-09-15T02:56:32.956Z,98629.72
2022-09-15T02:57:05.161Z,98631.31
2022-09-15T02:57:37.080Z,98634.56
2022-09-15T02:58:08.929Z,98641.22
2022-09-15T02:58:40.775Z,98642.28
2022-09-15T02:59:12.613Z,98642.09
2022-09-15T03:00:03.548Z,98645.72
2022-09-15T03:00:38.598Z,98639.34
2022-09-15T03:01:15.100Z,98644.75
2022-09-15T03:01:47.121Z,98644.06
2022-09-15T03:02:20.523Z,98640.62
2022-09-15T03:02:54.484Z,98641.03
2022-09-15T03:03:26.324Z,98639.75
2022-09-15T03:03:58.716Z,98640.03
2022-09-15T03:04:30.894Z,98639.44
2022-09-15T03:05:02.839Z,98636.19
2022-09-15T03:05:34.662Z,98645.34
2022-09-15T03:06:19.884Z,98637.31
2022-09-15T03:06:51.736Z,98644.94
2022-09-15T03:07:24.994Z,98636.50
2022-09-15T03:07:57.368Z,98633.75
2022-09-15T03:08:29.206Z,98641.28
2022-09-15T03:09:04.585Z,98633.16
2022-09-15T03:09:37.352Z,98633.34
2022-09-15T03:10:11.981Z,98631.50
2022-09-15T03:10:43.864Z,98634.91
2022-09-15T03:11:17.110Z,98633.84
2022-09-15T03:11:48.940Z,98631.41
2022-09-15T03:12:20.833Z,98630.22
2022-09-15T03:12:54.189Z,98632.00
2022-09-15T03:13:26.980Z,98632.28
2022-09-15T03:14:01.213Z,98637.00
2022-09-15T03:14:33.136Z,98629.16
2022-09-15T03:15:06.327Z,98629.63
2022-09-15T03:15:38.356Z,98628.56
2022-09-15T03:16:12.187Z,98632.19
2022-09-15T03:16:44.382Z,98633.16
2022-09-15T03:17:17.403Z,98637.88
2022-09-15T03:17:49.703Z,98629.94
2022-09-15T03:18:21.539Z,98625.91
2022-09-15T03:18:59.450Z,98627.78
2022-09-15T03:19:31.801Z,98629.66
2022-09-15T03:20:05.888Z,98627.00
2022-09-15T03:20:37.719Z,98624.06
2022-09-15T03:21:12.226Z,98635.53
2022-09-15T03:21:44.360Z,98631.59
2022-09-15T03:22:16.292Z,98631.03
2022-09-15T03:22:49.582Z,98634.16
2022-09-15T03:23:21.579Z,98632.78
2022-09-15T03:23:53.427Z,98635.94
2022-09-15T03:24:25.287Z,98635.53
2022-09-15T03:24:57.141Z,98630.22
2022-09-15T03:25:29.700Z,98636.91
2022-09-15T03:26:02.055Z,98641.41
2022-09-15T03:26:33.889Z,98637.69
2022-09-15T03:27:06.059Z,98637.22
2022-09-15T03:27:38.499Z,98640.91
2022-09-15T03:28:11.078Z,98641.22
2022-09-15T03:28:43.024Z,98637.31
2022-09-15T03:29:15.692Z,98636.81
2022-09-15T03:29:48.238Z,98641.59
2022-09-15T03:30:20.213Z,98637.88
2022-09-15T03:30:52.587Z,98644.16
2022-09-15T03:31:24.552Z,98641.78
2022-09-15T03:31:56.860Z,98644.16
2022-09-15T03:32:29.041Z,98634.34
2022-09-15T03:33:00.880Z,98632.97
2022-09-15T03:33:33.020Z,98641.41
2022-09-15T03:34:04.893Z,98637.69
2022-09-15T03:34:36.708Z,98641.41
2022-09-15T03:35:08.973Z,98642.00
2022-09-15T03:35:40.804Z,98642.00
2022-09-15T03:36:12.670Z,98637.50
2022-09-15T03:36:44.712Z,98644.66
2022-09-15T03:37:16.609Z,98647.91
2022-09-15T03:37:48.800Z,98642.38
2022-09-15T03:38:20.835Z,98651.59
2022-09-15T03:38:52.749Z,98649.63
2022-09-15T03:39:24.954Z,98646.22
2022-09-15T03:39:56.899Z,98644.06
2022-09-15T03:40:29.166Z,98644.16
2022-09-15T03:41:11.973Z,98638.06
2022-09-15T03:41:44.036Z,98641.41
2022-09-15T03:42:16.366Z,98647.00
2022-09-15T03:42:48.630Z,98645.41
2022-09-15T03:43:20.883Z,98645.25
2022-09-15T03:43:52.746Z,98644.94
2022-09-15T03:44:24.850Z,98642.78
2022-09-15T03:44:56.674Z,98650.66
2022-09-15T03:45:28.588Z,98645.34
2022-09-15T03:46:01.074Z,98648.00
2022-09-15T03:46:33.054Z,98646.91
2022-09-15T03:47:05.019Z,98646.91
2022-09-15T03:47:36.863Z,98645.81
2022-09-15T03:48:09.026Z,98645.25
2022-09-15T03:48:40.964Z,98645.72
2022-09-15T03:49:13.370Z,98637.31
2022-09-15T03:49:45.203Z,98636.50
2022-09-15T03:50:17.233Z,98635.72
2022-09-15T03:50:49.403Z,98637.88
2022-09-15T03:51:22.018Z,98640.06
2022-09-15T03:51:53.879Z,98630.63
2022-09-15T03:52:26.224Z,98633.75
2022-09-15T03:53:00.810Z,98637.69
2022-09-15T03:53:34.421Z,98637.47
2022-09-15T03:54:06.277Z,98634.66
2022-09-15T03:54:38.129Z,98641.41
2022-09-15T03:55:10.198Z,98640.62
2022-09-15T03:55:42.135Z,98643.28
2022-09-15T03:56:24.278Z,98635.34
2022-09-15T03:56:56.231Z,98636.91
2022-09-15T03:57:28.186Z,98632.47
2022-09-15T03:58:00.059Z,98634.56
2022-09-15T03:58:32.217Z,98632.97
2022-09-15T03:59:05.771Z,98629.84
2022-09-15T03:59:37.620Z,98634.34
2022-09-15T04:00:10.237Z,98633.75
2022-09-15T04:00:43.614Z,98637.28
2022-09-15T04:01:15.587Z,98643.38
2022-09-15T04:01:48.706Z,98635.91
2022-09-15T04:02:21.042Z,98641.72
2022-09-15T04:02:52.997Z,98642.31
2022-09-15T04:03:24.950Z,98641.22
2022-09-15T04:03:57.920Z,98641.50
2022-09-15T04:04:29.878Z,98636.19
2022-09-15T04:05:02.901Z,98639.66
2022-09-15T04:05:36.069Z,98642.88
2022-09-15T04:06:08.389Z,98651.31
2022-09-15T04:06:41.275Z,98640.22
2022-09-15T04:07:13.124Z,98638.38
2022-09-15T04:07:44.934Z,98643.59
2022-09-15T04:08:17.673Z,98644.84
2022-09-15T04:08:50.674Z,98654.06
2022-09-15T04:09:22.727Z,98644.53
2022-09-15T04:09:54.545Z,98649.56
2022-09-15T04:10:26.412Z,98646.13
2022-09-15T04:11:00.323Z,98652.81
2022-09-15T04:11:32.473Z,98651.03
2022-09-15T04:12:04.735Z,98656.31
2022-09-15T04:12:36.983Z,98652.91
2022-09-15T04:13:08.851Z,98651.81
2022-09-15T04:13:42.103Z,98652.00
2022-09-15T04:14:13.952Z,98647.59
2022-09-15T04:14:46.621Z,98654.94
2022-09-15T04:15:20.381Z,98654.34
2022-09-15T04:16:03.211Z,98648.88
2022-09-15T04:16:35.479Z,98654.34
2022-09-15T04:17:07.401Z,98648.97
2022-09-15T04:17:39.227Z,98655.34
2022-09-15T04:18:11.057Z,98655.53
2022-09-15T04:18:43.273Z,98653.09
2022-09-15T04:19:15.146Z,98653.19
2022-09-15T04:19:47.040Z,98661.25
2022-09-15T04:20:19.037Z,98656.91
2022-09-15T04:20:51.094Z,98657.91
2022-09-15T04:21:25.375Z,98661.59
2022-09-15T04:21:57.541Z,98659.06
2022-09-15T04:22:32.581Z,98658.00
2022-09-15T04:23:04.481Z,98661.44
2022-09-15T04:23:36.399Z,98662.81
2022-09-15T04:24:08.575Z,98657.22
2022-09-15T04:24:40.401Z,98663.78
2022-09-15T04:25:12.254Z,98657.78
2022-09-15T04:25:44.091Z,98646.81
2022-09-15T04:26:19.143Z,98651.59
2022-09-15T04:26:51.055Z,98640.84
2022-09-15T04:27:23.245Z,98637.88
2022-09-15T04:27:56.975Z,98644.44
2022-09-15T04:28:31.970Z,98642.88
2022-09-15T04:29:05.749Z,98651.44
2022-09-15T04:29:37.669Z,98651.59
2022-09-15T04:30:10.104Z,98647.19
2022-09-15T04:30:41.972Z,98646.69
2022-09-15T04:31:16.117Z,98651.00
2022-09-15T04:31:48.782Z,98650.06
2022-09-15T04:32:21.166Z,98650.66
2022-09-15T04:32:53.957Z,98646.91
2022-09-15T04:33:25.798Z,98644.66
2022-09-15T04:33:57.679Z,98650.06
2022-09-15T04:34:29.533Z,98648.97
2022-09-15T04:35:01.955Z,98652.37
2022-09-15T04:35:34.088Z,98654.75
2022-09-15T04:36:12.343Z,98653.88
2022-09-15T04:36:44.669Z,98654.47
2022-09-15T04:37:16.533Z,98656.22
2022-09-15T04:37:48.617Z,98660.44
2022-09-15T04:38:20.744Z,98657.31
2022-09-15T04:38:53.005Z,98659.94
2022-09-15T04:39:25.601Z,98671.03
2022-09-15T04:39:57.573Z,98666.69
2022-09-15T04:40:29.842Z,98666.53
2022-09-15T04:41:02.574Z,98663.09
2022-09-15T04:41:34.527Z,98671.03
2022-09-15T04:42:07.864Z,98673.97
2022-09-15T04:42:39.785Z,98672.19
2022-09-15T04:43:11.958Z,98673.97
2022-09-15T04:43:44.374Z,98669.75
2022-09-15T04:44:16.234Z,98675.75
2022-09-15T04:44:48.117Z,98676.34
2022-09-15T04:45:19.964Z,98686.34
2022-09-15T04:45:52.179Z,98684.78
2022-09-15T04:46:24.067Z,98683.59
2022-09-15T04:46:56.006Z,98684.06
2022-09-15T04:47:27.971Z,98674.75
2022-09-15T04:48:00.248Z,98681.81
2022-09-15T04:48:32.643Z,98678.38
2022-09-15T04:49:04.946Z,98668.06
2022-09-15T04:49:36.818Z,98670.25
2022-09-15T04:50:08.912Z,98672.59
2022-09-15T04:50:40.791Z,98675.16
2022-09-15T04:51:15.564Z,98676.63
2022-09-15T04:51:47.444Z,98674.75
2022-09-15T04:52:19.414Z,98675.84
2022-09-15T04:52:52.129Z,98677.72
2022-09-15T04:53:23.975Z,98681.72
2022-09-15T04:53:55.924Z,98676.63
2022-09-15T04:54:28.109Z,98677.91
2022-09-15T04:55:00.415Z,98689.59
2022-09-15T04:55:35.546Z,98677.91
2022-09-15T04:56:19.530Z,98677.78
2022-09-15T04:56:51.477Z,98676.91
2022-09-15T04:57:23.343Z,98675.47
2022-09-15T04:57:55.556Z,98682.22
2022-09-15T04:58:27.753Z,98678.50
2022-09-15T04:59:03.919Z,98682.13
2022-09-15T04:59:36.609Z,98681.72
2022-09-15T05:00:09.178Z,98684.69
2022-09-15T05:00:45.785Z,98681.53
2022-09-15T05:01:25.333Z,98674.19
2022-09-15T05:01:57.308Z,98678.09
2022-09-15T05:02:29.234Z,98675.53
2022-09-15T05:03:01.120Z,98675.91
2022-09-15T05:03:36.306Z,98676.72
2022-09-15T05:04:08.175Z,98677.50
2022-09-15T05:04:40.416Z,98682.03
2022-09-15T05:05:12.298Z,98676.03
2022-09-15T05:05:44.122Z,98672.28
2022-09-15T05:06:19.144Z,98671.72
2022-09-15T05:06:50.982Z,98672.22
2022-09-15T05:07:22.872Z,98673.03
2022-09-15T05:07:54.901Z,98669.28
2022-09-15T05:08:26.758Z,98664.75
2022-09-15T05:08:59.023Z,98666.63
2022-09-15T05:09:31.265Z,98668.69
2022-09-15T05:10:03.686Z,98667.50
2022-09-15T05:10:35.627Z,98661.41
2022-09-15T05:11:12.266Z,98661.59
2022-09-15T05:11:44.092Z,98666.31
2022-09-15T05:12:16.001Z,98663.38
2022-09-15T05:12:47.924Z,98663.03
2022-09-15T05:13:19.874Z,98660.41
2022-09-15T05:13:52.228Z,98666.06
2022-09-15T05:14:24.051Z,98664.31
2022-09-15T05:14:55.895Z,98667.69
2022-09-15T05:15:28.056Z,98669.84
2022-09-15T05:16:17.476Z,98671.44
2022-09-15T05:16:49.462Z,98672.97
2022-09-15T05:17:24.061Z,98679.66
2022-09-15T05:17:58.578Z,98679.44
2022-09-15T05:18:31.510Z,98680.44
2022-09-15T05:19:04.604Z,98688.16
2022-09-15T05:19:36.772Z,98696.72
2022-09-15T05:20:09.244Z,98682.37
2022-09-15T05:20:41.377Z,98693.78
2022-09-15T05:21:15.851Z,98688.06
2022-09-15T05:21:47.695Z,98690.59
2022-09-15T05:22:20.342Z,98688.34
2022-09-15T05:22:52.210Z,98690.97
2022-09-15T05:23:24.223Z,98694.12
2022-09-15T05:23:56.447Z,98699.50
2022-09-15T05:24:28.331Z,98697.03
2022-09-15T05:25:00.317Z,98699.50
2022-09-15T05:25:32.206Z,98701.56
2022-09-15T05:26:07.965Z,98698.59
2022-09-15T05:26:40.042Z,98705.50
2022-09-15T05:27:11.920Z,98704.50
2022-09-15T05:27:43.774Z,98702.56
2022-09-15T05:28:15.651Z,98701.59
2022-09-15T05:28:47.677Z,98707.88
2022-09-15T05:29:19.592Z,98712.69
2022-09-15T05:30:04.337Z,98712.69
2022-09-15T05:30:44.614Z,98730.66
2022-09-15T05:31:27.083Z,98723.47
2022-09-15T05:31:59.144Z,98737.34
2022-09-15T05:32:30.961Z,98731.75
2022-09-15T05:33:02.939Z,98725.53
2022-09-15T05:33:34.896Z,98734.56
2022-09-15T05:34:07.261Z,98725.53
2022-09-15T05:34:39.113Z,98723.69
2022-09-15T05:35:10.951Z,98728.47
2022-09-15T05:35:53.710Z,98726.31
2022-09-15T05:36:25.938Z,98726.81
2022-09-15T05:36:57.971Z,98723.56
2022-09-15T05:37:29.818Z,98724.75
2022-09-15T05:38:02.119Z,98722.19
2022-09-15T05:38:34.022Z,98728.09
2022-09-15T05:39:05.851Z,98729.19
2022-09-15T05:39:39.374Z,98737.81
2022-09-15T05:40:11.470Z,98738.31
2022-09-15T05:40:43.348Z,98743.91
2022-09-15T05:41:17.635Z,98745.88
2022-09-15T05:41:50.128Z,98741.84
2022-09-15T05:42:21.971Z,98742.25
2022-09-15T05:42:53.851Z,98733.50
2022-09-15T05:43:25.724Z,98741.97
2022-09-15T05:43:59.079Z,98735.56
2022-09-15T05:44:31.601Z,98740.88
2022-09-15T05:45:03.662Z,98733.63
2022-09-15T05:45:35.532Z,98739.69
2022-09-15T05:46:08.369Z,98732.03
2022-09-15T05:46:40.316Z,98734.06
2022-09-15T05:47:12.604Z,98733.41
2022-09-15T05:47:44.429Z,98734.00
2022-09-15T05:48:16.261Z,98726.66
2022-09-15T05:48:48.134Z,98735.09
2022-09-15T05:49:20.004Z,98736.78
2022-09-15T05:49:52.057Z,98733.13
2022-09-15T05:50:23.913Z,98737.94
2022-09-15T05:50:56.902Z,98734.50
2022-09-15T05:51:30.185Z,98735.59
2022-09-15T05:52:02.386Z,98737.94
2022-09-15T05:52:35.819Z,98742.28
2022-09-15T05:53:07.874Z,98739.91
2022-09-15T05:53:40.138Z,98750.72
2022-09-15T05:54:11.931Z,98742.78
2022-09-15T05:54:43.823Z,98747.88
2022-09-15T05:55:15.688Z,98749.91
2022-09-15T05:55:47.871Z,98743.75
2022-09-15T05:56:20.188Z,98741.69
2022-09-15T05:56:52.015Z,98735.37
2022-09-15T05:57:23.840Z,98741.28
2022-09-15T05:57:56.004Z,98732.75
2022-09-15T05:58:28.071Z,98735.87
2022-09-15T05:58:59.902Z,98730.47
2022-09-15T05:59:31.718Z,98731.25
2022-09-15T06:00:04.367Z,98727.34
2022-09-15T06:00:43.553Z,98724.41
2022-09-15T06:01:24.635Z,98721.47
2022-09-15T06:01:56.596Z,98722.63
2022-09-15T06:02:28.620Z,98729.31
2022-09-15T06:03:00.678Z,98719.31
2022-09-15T06:03:32.761Z,98723.22
2022-09-15T06:04:04.938Z,98724.97
2022-09-15T06:04:36.776Z,98716.72
2022-09-15T06:05:09.001Z,98729.09
2022-09-15T06:05:41.446Z,98717.50
2022-09-15T06:06:13.827Z,98714.84
2022-09-15T06:06:46.312Z,98718.97
2022-09-15T06:07:18.144Z,98717.59
2022-09-15T06:07:53.386Z,98717.75
2022-09-15T06:08:25.232Z,98714.94
2022-09-15T06:08:58.891Z,98717.88
2022-09-15T06:09:31.212Z,98716.66
2022-09-15T06:10:06.565Z,98714.88
2022-09-15T06:10:38.951Z,98719.41
2022-09-15T06:11:19.354Z,98720.19
2022-09-15T06:11:52.209Z,98719.59
2022-09-15T06:12:24.129Z,98715.88
2022-09-15T06:12:56.658Z,98717.41
2022-09-15T06:13:28.657Z,98717.53
2022-09-15T06:14:03.153Z,98715.97
2022-09-15T06:14:35.113Z,98721.94
2022-09-15T06:15:07.449Z,98715.88
2022-09-15T06:15:39.276Z,98715.88
2022-09-15T06:16:14.073Z,98717.41
2022-09-15T06:16:45.961Z,98723.72
2022-09-15T06:17:18.216Z,98722.72
2022-09-15T06:17:50.755Z,98717.91
2022-09-15T06:18:22.621Z,98721.16
2022-09-15T06:18:54.557Z,98723.72
2022-09-15T06:19:26.438Z,98730.94
2022-09-15T06:19:58.356Z,98724.06
2022-09-15T06:20:30.210Z,98729.97
2022-09-15T06:21:23.235Z,98726.72
2022-09-15T06:21:55.101Z,98726.84
2022-09-15T06:22:28.153Z,98725.75
2022-09-15T06:23:00.187Z,98730.34
2022-09-15T06:23:32.481Z,98730.25
2022-09-15T06:24:07.338Z,98729.19
2022-09-15T06:24:39.351Z,98737.50
2022-09-15T06:25:13.146Z,98737.78
2022-09-15T06:25:44.996Z,98733.75
2022-09-15T06:26:19.010Z,98739.56
2022-09-15T06:26:51.332Z,98731.88
2022-09-15T06:27:23.193Z,98738.94
2022-09-15T06:27:55.290Z,98738.47
2022-09-15T06:28:27.149Z,98737.97
2022-09-15T06:29:01.204Z,98733.63
2022-09-15T06:29:33.167Z,98738.16
2022-09-15T06:30:05.837Z,98730.69
2022-09-15T06:30:40.221Z,98731.88
2022-09-15T06:31:13.995Z,98726.16
2022-09-15T06:31:45.961Z,98727.53
2022-09-15T06:32:17.894Z,98733.63
2022-09-15T06:32:49.737Z,98732.50
2022-09-15T06:33:21.912Z,98734.25
2022-09-15T06:33:55.966Z,98734.25
2022-09-15T06:34:28.133Z,98745.19
2022-09-15T06:35:00.548Z,98748.03
2022-09-15T06:35:32.399Z,98757.28
2022-09-15T06:36:04.375Z,98755.09
2022-09-15T06:36:37.799Z,98769.44
2022-09-15T06:37:09.707Z,98765.53
2022-09-15T06:37:41.560Z,98759.94
2022-09-15T06:38:13.461Z,98767.59
2022-09-15T06:38:46.802Z,98775.84
2022-09-15T06:39:19.236Z,98768.50
2022-09-15T06:39:51.193Z,98764.22
2022-09-15T06:40:23.265Z,98767.09
2022-09-15T06:40:59.507Z,98768.88
2022-09-15T06:41:47.459Z,98774.47
2022-09-15T06:42:23.259Z,98758.91
2022-09-15T06:42:57.050Z,98765.31
2022-09-15T06:43:31.199Z,98764.75
2022-09-15T06:44:03.555Z,98764.44
2022-09-15T06:44:35.580Z,98763.44
2022-09-15T06:45:07.905Z,98763.94
2022-09-15T06:45:39.800Z,98759.69
2022-09-15T06:46:14.405Z,98757.94
2022-09-15T06:46:46.945Z,98761.06
2022-09-15T06:47:19.768Z,98769.81
2022-09-15T06:48:13.367Z,98758.41
2022-09-15T06:48:48.099Z,98768.63
2022-09-15T06:49:21.878Z,98767.59
2022-09-15T06:49:55.731Z,98764.03
2022-09-15T06:50:27.573Z,98765.59
2022-09-15T06:51:00.422Z,98764.38
2022-09-15T06:51:35.448Z,98769.88